Airport ID:1G3
Update Time (UTC):07/05/2021 19:52
Wind Speed (Knots):8
Wind Direction (Magnetic):340
Temperature (°C):10
Dew Point (°C):1
Humidity (%):50
Altimeter (inHg):29.94
Density Altitude (Feet):
Visibility:10+
Clouds (Hundreds of feet):***
Present Weather:
METAR:METAR 1G3 071950Z AUTO 34008G14KT 10SM 10/00 A2994 RMK A01

The data displayed is for advisory purposes only and is not to be used for flight planning or operations.